Kansas City North, Missouri
Current Conditions -  °F | °C
As of 9:54 PM on Saturday 20 Dec 2014 (Local Time) from KMKC Reporting Station
Clear Clear  
Wind Chill: 33°   Ceiling: Unl
Heat Index: 38°   Visibility: 9mi
Dew Point: 33°   Wind: 6mph
Humidity: 83%   Direction: 200°SSW
Pressure: 30.14"   Gusts: NA
Location:  39.1657°N, 94.5231°W
Report Text: KMKC 210354Z 20005KT 9SM CLR 03/01 A3014 RMK AO2 SLP209 T00330006
Loading
Personal Weather Stations






























Interactive Weather Map New forecast layout! Learn more

10-Day Weather Forecast

Advertisements
Track Severe Weather on mobile